sensor_id;sensor_type;location;lat;lon;timestamp;P1;durP1;ratioP1;P2;durP2;ratioP2
23252;SDS011;11795;47.054;15.408;2023-02-12T00:00:00;17.4;;;12.6;;
23252;SDS011;11795;47.054;15.408;2023-02-12T00:02:00;17.4;;;12.6;;
23252;SDS011;11795;47.054;15.408;2023-02-12T00:04:00;17.4;;;12.6;;
23252;SDS011;11795;47.054;15.408;2023-02-12T00:06:00;16.6;;;12.5;;
23252;SDS011;11795;47.054;15.408;2023-02-12T00:08:00;16.6;;;12.5;;
23252;SDS011;11795;47.054;15.408;2023-02-12T00:10:00;16.2;;;11.9;;
23252;SDS011;11795;47.054;15.408;2023-02-12T00:12:00;16.2;;;11.9;;
23252;SDS011;11795;47.054;15.408;2023-02-12T00:14:00;16.2;;;11.9;;
23252;SDS011;11795;47.054;15.408;2023-02-12T00:16:02;17.2;;;13.0;;
23252;SDS011;11795;47.054;15.408;2023-02-12T00:18:00;17.2;;;13.0;;
23252;SDS011;11795;47.054;15.408;2023-02-12T00:20:00;17.1;;;12.2;;
23252;SDS011;11795;47.054;15.408;2023-02-12T00:22:00;17.1;;;12.2;;
23252;SDS011;11795;47.054;15.408;2023-02-12T00:24:00;17.1;;;12.2;;
23252;SDS011;11795;47.054;15.408;2023-02-12T00:26:03;17.4;;;12.2;;
23252;SDS011;11795;47.054;15.408;2023-02-12T00:28:00;17.4;;;12.2;;
23252;SDS011;11795;47.054;15.408;2023-02-12T00:30:00;17.8;;;12.7;;
23252;SDS011;11795;47.054;15.408;2023-02-12T00:32:00;17.8;;;12.7;;
23252;SDS011;11795;47.054;15.408;2023-02-12T00:34:00;17.8;;;12.7;;
23252;SDS011;11795;47.054;15.408;2023-02-12T00:36:00;19.7;;;13.0;;
23252;SDS011;11795;47.054;15.408;2023-02-12T00:38:00;19.7;;;13.0;;
23252;SDS011;11795;47.054;15.408;2023-02-12T00:40:00;19.8;;;13.4;;
23252;SDS011;11795;47.054;15.408;2023-02-12T00:42:00;19.8;;;13.4;;
23252;SDS011;11795;47.054;15.408;2023-02-12T00:44:00;19.8;;;13.4;;
23252;SDS011;11795;47.054;15.408;2023-02-12T00:46:00;18.8;;;12.6;;
23252;SDS011;11795;47.054;15.408;2023-02-12T00:48:00;18.8;;;12.6;;
23252;SDS011;11795;47.054;15.408;2023-02-12T00:50:00;18.2;;;13.2;;
23252;SDS011;11795;47.054;15.408;2023-02-12T00:52:00;18.2;;;13.2;;
23252;SDS011;11795;47.054;15.408;2023-02-12T00:54:00;18.2;;;13.2;;
23252;SDS011;11795;47.054;15.408;2023-02-12T00:56:00;19.5;;;13.0;;
23252;SDS011;11795;47.054;15.408;2023-02-12T00:58:00;19.5;;;13.0;;
23252;SDS011;11795;47.054;15.408;2023-02-12T01:00:00;26.4;;;16.9;;
23252;SDS011;11795;47.054;15.408;2023-02-12T01:02:00;26.4;;;16.9;;
23252;SDS011;11795;47.054;15.408;2023-02-12T01:04:00;26.4;;;16.9;;
23252;SDS011;11795;47.054;15.408;2023-02-12T01:06:00;20.2;;;13.2;;
23252;SDS011;11795;47.054;15.408;2023-02-12T01:08:00;20.2;;;13.2;;
23252;SDS011;11795;47.054;15.408;2023-02-12T01:10:00;17.2;;;12.1;;
23252;SDS011;11795;47.054;15.408;2023-02-12T01:12:00;17.2;;;12.1;;
23252;SDS011;11795;47.054;15.408;2023-02-12T01:14:00;17.2;;;12.1;;
23252;SDS011;11795;47.054;15.408;2023-02-12T01:16:02;17.0;;;11.7;;
23252;SDS011;11795;47.054;15.408;2023-02-12T01:18:00;17.0;;;11.7;;
23252;SDS011;11795;47.054;15.408;2023-02-12T01:20:00;17.9;;;11.4;;
23252;SDS011;11795;47.054;15.408;2023-02-12T01:22:00;17.9;;;11.4;;
23252;SDS011;11795;47.054;15.408;2023-02-12T01:24:00;17.9;;;11.4;;
23252;SDS011;11795;47.054;15.408;2023-02-12T01:26:00;15.0;;;11.0;;
23252;SDS011;11795;47.054;15.408;2023-02-12T01:28:00;15.0;;;11.0;;
23252;SDS011;11795;47.054;15.408;2023-02-12T01:30:00;14.5;;;10.6;;
23252;SDS011;11795;47.054;15.408;2023-02-12T01:32:00;14.5;;;10.6;;
23252;SDS011;11795;47.054;15.408;2023-02-12T01:34:00;14.5;;;10.6;;
23252;SDS011;11795;47.054;15.408;2023-02-12T01:36:00;15.6;;;11.2;;
23252;SDS011;11795;47.054;15.408;2023-02-12T01:38:00;15.6;;;11.2;;
23252;SDS011;11795;47.054;15.408;2023-02-12T01:40:00;14.6;;;10.4;;
23252;SDS011;11795;47.054;15.408;2023-02-12T01:42:00;14.6;;;10.4;;
23252;SDS011;11795;47.054;15.408;2023-02-12T01:44:09;14.6;;;10.4;;
23252;SDS011;11795;47.054;15.408;2023-02-12T01:46:00;15.1;;;10.8;;
23252;SDS011;11795;47.054;15.408;2023-02-12T01:48:00;15.1;;;10.8;;
23252;SDS011;11795;47.054;15.408;2023-02-12T01:50:00;15.0;;;10.6;;
23252;SDS011;11795;47.054;15.408;2023-02-12T01:52:02;15.0;;;10.6;;
23252;SDS011;11795;47.054;15.408;2023-02-12T01:54:00;15.0;;;10.6;;
23252;SDS011;11795;47.054;15.408;2023-02-12T01:56:00;17.6;;;11.9;;
23252;SDS011;11795;47.054;15.408;2023-02-12T01:58:00;17.6;;;11.9;;
23252;SDS011;11795;47.054;15.408;2023-02-12T02:00:00;16.3;;;11.4;;
23252;SDS011;11795;47.054;15.408;2023-02-12T02:02:00;16.3;;;11.4;;
23252;SDS011;11795;47.054;15.408;2023-02-12T02:04:01;16.3;;;11.4;;
23252;SDS011;11795;47.054;15.408;2023-02-12T02:06:01;17.0;;;12.1;;
23252;SDS011;11795;47.054;15.408;2023-02-12T02:08:00;17.0;;;12.1;;
23252;SDS011;11795;47.054;15.408;2023-02-12T02:10:00;17.9;;;11.7;;
23252;SDS011;11795;47.054;15.408;2023-02-12T02:12:10;17.9;;;11.7;;
23252;SDS011;11795;47.054;15.408;2023-02-12T02:14:10;17.9;;;11.7;;
23252;SDS011;11795;47.054;15.408;2023-02-12T02:16:02;15.9;;;11.2;;
23252;SDS011;11795;47.054;15.408;2023-02-12T02:18:01;15.9;;;11.2;;
23252;SDS011;11795;47.054;15.408;2023-02-12T02:22:05;16.3;;;11.4;;
23252;SDS011;11795;47.054;15.408;2023-02-12T02:24:04;16.3;;;11.4;;
23252;SDS011;11795;47.054;15.408;2023-02-12T02:28:03;15.0;;;11.1;;
23252;SDS011;11795;47.054;15.408;2023-02-12T02:32:01;16.5;;;11.0;;
23252;SDS011;11795;47.054;15.408;2023-02-12T02:34:02;16.5;;;11.0;;
23252;SDS011;11795;47.054;15.408;2023-02-12T02:36:03;17.7;;;11.5;;
23252;SDS011;11795;47.054;15.408;2023-02-12T02:38:06;17.7;;;11.5;;
23252;SDS011;11795;47.054;15.408;2023-02-12T02:40:02;19.8;;;11.4;;
23252;SDS011;11795;47.054;15.408;2023-02-12T02:42:00;19.8;;;11.4;;
23252;SDS011;11795;47.054;15.408;2023-02-12T02:44:01;19.8;;;11.4;;
23252;SDS011;11795;47.054;15.408;2023-02-12T02:46:01;16.6;;;11.1;;
23252;SDS011;11795;47.054;15.408;2023-02-12T02:48:01;16.6;;;11.1;;
23252;SDS011;11795;47.054;15.408;2023-02-12T02:50:01;16.4;;;11.1;;
23252;SDS011;11795;47.054;15.408;2023-02-12T02:52:01;16.4;;;11.1;;
23252;SDS011;11795;47.054;15.408;2023-02-12T02:54:02;16.4;;;11.1;;
23252;SDS011;11795;47.054;15.408;2023-02-12T02:56:01;14.0;;;10.2;;
23252;SDS011;11795;47.054;15.408;2023-02-12T02:58:01;14.0;;;10.2;;
23252;SDS011;11795;47.054;15.408;2023-02-12T03:00:05;15.0;;;10.9;;
23252;SDS011;11795;47.054;15.408;2023-02-12T03:02:01;15.0;;;10.9;;
23252;SDS011;11795;47.054;15.408;2023-02-12T03:04:01;15.0;;;10.9;;
23252;SDS011;11795;47.054;15.408;2023-02-12T03:06:01;15.5;;;10.9;;
23252;SDS011;11795;47.054;15.408;2023-02-12T03:08:02;15.5;;;10.9;;
23252;SDS011;11795;47.054;15.408;2023-02-12T03:10:01;12.6;;;9.8;;
23252;SDS011;11795;47.054;15.408;2023-02-12T03:12:01;12.6;;;9.8;;
23252;SDS011;11795;47.054;15.408;2023-02-12T03:14:01;12.6;;;9.8;;
23252;SDS011;11795;47.054;15.408;2023-02-12T03:16:01;15.6;;;10.7;;
23252;SDS011;11795;47.054;15.408;2023-02-12T03:18:00;15.6;;;10.7;;
23252;SDS011;11795;47.054;15.408;2023-02-12T03:20:02;12.4;;;9.5;;
23252;SDS011;11795;47.054;15.408;2023-02-12T03:22:01;12.4;;;9.5;;
23252;SDS011;11795;47.054;15.408;2023-02-12T03:24:01;12.4;;;9.5;;
23252;SDS011;11795;47.054;15.408;2023-02-12T03:26:02;11.8;;;9.6;;
23252;SDS011;11795;47.054;15.408;2023-02-12T03:28:01;11.8;;;9.6;;
23252;SDS011;11795;47.054;15.408;2023-02-12T03:30:00;14.6;;;10.7;;
23252;SDS011;11795;47.054;15.408;2023-02-12T03:32:04;14.6;;;10.7;;
23252;SDS011;11795;47.054;15.408;2023-02-12T03:34:03;14.6;;;10.7;;
23252;SDS011;11795;47.054;15.408;2023-02-12T03:36:05;14.2;;;10.6;;
23252;SDS011;11795;47.054;15.408;2023-02-12T03:38:01;14.2;;;10.6;;
23252;SDS011;11795;47.054;15.408;2023-02-12T03:40:03;15.6;;;10.6;;
23252;SDS011;11795;47.054;15.408;2023-02-12T03:42:01;15.6;;;10.6;;
23252;SDS011;11795;47.054;15.408;2023-02-12T03:44:03;15.6;;;10.6;;
23252;SDS011;11795;47.054;15.408;2023-02-12T03:46:01;12.3;;;9.3;;
23252;SDS011;11795;47.054;15.408;2023-02-12T03:48:01;12.3;;;9.3;;
23252;SDS011;11795;47.054;15.408;2023-02-12T03:50:02;12.6;;;9.3;;
23252;SDS011;11795;47.054;15.408;2023-02-12T03:52:00;12.6;;;9.3;;
23252;SDS011;11795;47.054;15.408;2023-02-12T03:54:00;12.6;;;9.3;;
23252;SDS011;11795;47.054;15.408;2023-02-12T03:56:01;13.6;;;9.4;;
23252;SDS011;11795;47.054;15.408;2023-02-12T03:58:00;13.6;;;9.4;;
23252;SDS011;11795;47.054;15.408;2023-02-12T04:00:00;12.9;;;9.1;;
23252;SDS011;11795;47.054;15.408;2023-02-12T04:02:00;12.9;;;9.1;;
23252;SDS011;11795;47.054;15.408;2023-02-12T04:04:02;12.9;;;9.1;;
23252;SDS011;11795;47.054;15.408;2023-02-12T04:06:00;11.6;;;8.2;;
23252;SDS011;11795;47.054;15.408;2023-02-12T04:08:07;11.6;;;8.2;;
23252;SDS011;11795;47.054;15.408;2023-02-12T04:10:00;11.7;;;8.7;;
23252;SDS011;11795;47.054;15.408;2023-02-12T04:12:05;11.7;;;8.7;;
23252;SDS011;11795;47.054;15.408;2023-02-12T04:14:06;11.7;;;8.7;;
23252;SDS011;11795;47.054;15.408;2023-02-12T04:16:04;12.8;;;8.4;;
23252;SDS011;11795;47.054;15.408;2023-02-12T04:18:01;12.8;;;8.4;;
23252;SDS011;11795;47.054;15.408;2023-02-12T04:20:02;12.8;;;9.0;;
23252;SDS011;11795;47.054;15.408;2023-02-12T04:22:04;12.8;;;9.0;;
23252;SDS011;11795;47.054;15.408;2023-02-12T04:24:02;12.8;;;9.0;;
23252;SDS011;11795;47.054;15.408;2023-02-12T04:26:03;11.4;;;8.8;;
23252;SDS011;11795;47.054;15.408;2023-02-12T04:28:03;11.4;;;8.8;;
23252;SDS011;11795;47.054;15.408;2023-02-12T04:30:02;11.0;;;8.4;;
23252;SDS011;11795;47.054;15.408;2023-02-12T04:32:03;11.0;;;8.4;;
23252;SDS011;11795;47.054;15.408;2023-02-12T04:34:03;11.0;;;8.4;;
23252;SDS011;11795;47.054;15.408;2023-02-12T04:36:00;11.5;;;8.5;;
23252;SDS011;11795;47.054;15.408;2023-02-12T04:38:02;11.5;;;8.5;;
23252;SDS011;11795;47.054;15.408;2023-02-12T04:40:01;12.8;;;8.8;;
23252;SDS011;11795;47.054;15.408;2023-02-12T04:42:00;12.8;;;8.8;;
23252;SDS011;11795;47.054;15.408;2023-02-12T04:46:00;12.0;;;8.8;;
23252;SDS011;11795;47.054;15.408;2023-02-12T04:48:00;12.0;;;8.8;;
23252;SDS011;11795;47.054;15.408;2023-02-12T04:50:00;13.0;;;9.1;;
23252;SDS011;11795;47.054;15.408;2023-02-12T04:52:00;13.0;;;9.1;;
23252;SDS011;11795;47.054;15.408;2023-02-12T04:54:00;13.0;;;9.1;;
23252;SDS011;11795;47.054;15.408;2023-02-12T04:56:00;12.2;;;8.7;;
23252;SDS011;11795;47.054;15.408;2023-02-12T04:58:00;12.2;;;8.7;;
23252;SDS011;11795;47.054;15.408;2023-02-12T05:00:00;13.7;;;9.3;;
23252;SDS011;11795;47.054;15.408;2023-02-12T05:02:00;13.7;;;9.3;;
23252;SDS011;11795;47.054;15.408;2023-02-12T05:04:00;13.7;;;9.3;;
23252;SDS011;11795;47.054;15.408;2023-02-12T05:06:01;11.5;;;8.4;;
23252;SDS011;11795;47.054;15.408;2023-02-12T05:08:00;11.5;;;8.4;;
23252;SDS011;11795;47.054;15.408;2023-02-12T05:10:00;10.9;;;8.0;;
23252;SDS011;11795;47.054;15.408;2023-02-12T05:12:00;10.9;;;8.0;;
23252;SDS011;11795;47.054;15.408;2023-02-12T05:14:00;10.9;;;8.0;;
23252;SDS011;11795;47.054;15.408;2023-02-12T05:16:02;10.9;;;7.8;;
23252;SDS011;11795;47.054;15.408;2023-02-12T05:18:00;10.9;;;7.8;;
23252;SDS011;11795;47.054;15.408;2023-02-12T05:20:00;9.8;;;7.7;;
23252;SDS011;11795;47.054;15.408;2023-02-12T05:22:00;9.8;;;7.7;;
23252;SDS011;11795;47.054;15.408;2023-02-12T05:24:00;9.8;;;7.7;;
23252;SDS011;11795;47.054;15.408;2023-02-12T05:26:00;11.5;;;9.0;;
23252;SDS011;11795;47.054;15.408;2023-02-12T05:28:00;11.5;;;9.0;;
23252;SDS011;11795;47.054;15.408;2023-02-12T05:30:01;13.1;;;8.7;;
23252;SDS011;11795;47.054;15.408;2023-02-12T05:32:00;13.1;;;8.7;;
23252;SDS011;11795;47.054;15.408;2023-02-12T05:34:00;13.1;;;8.7;;
23252;SDS011;11795;47.054;15.408;2023-02-12T05:36:02;12.2;;;9.0;;
23252;SDS011;11795;47.054;15.408;2023-02-12T05:38:00;12.2;;;9.0;;
23252;SDS011;11795;47.054;15.408;2023-02-12T05:40:00;11.9;;;8.7;;
23252;SDS011;11795;47.054;15.408;2023-02-12T05:42:00;11.9;;;8.7;;
23252;SDS011;11795;47.054;15.408;2023-02-12T05:44:00;11.9;;;8.7;;
23252;SDS011;11795;47.054;15.408;2023-02-12T05:46:01;10.8;;;8.0;;
23252;SDS011;11795;47.054;15.408;2023-02-12T05:48:01;10.8;;;8.0;;
23252;SDS011;11795;47.054;15.408;2023-02-12T05:50:00;12.6;;;9.2;;
23252;SDS011;11795;47.054;15.408;2023-02-12T05:52:00;12.6;;;9.2;;
23252;SDS011;11795;47.054;15.408;2023-02-12T05:54:01;12.6;;;9.2;;
23252;SDS011;11795;47.054;15.408;2023-02-12T05:56:08;12.3;;;9.0;;
23252;SDS011;11795;47.054;15.408;2023-02-12T05:58:00;12.3;;;9.0;;
23252;SDS011;11795;47.054;15.408;2023-02-12T06:00:00;13.1;;;8.8;;
23252;SDS011;11795;47.054;15.408;2023-02-12T06:02:00;13.1;;;8.8;;
23252;SDS011;11795;47.054;15.408;2023-02-12T06:04:00;13.1;;;8.8;;
23252;SDS011;11795;47.054;15.408;2023-02-12T06:06:00;13.2;;;8.7;;
23252;SDS011;11795;47.054;15.408;2023-02-12T06:08:00;13.2;;;8.7;;
23252;SDS011;11795;47.054;15.408;2023-02-12T06:10:00;11.9;;;8.7;;
23252;SDS011;11795;47.054;15.408;2023-02-12T06:12:00;11.9;;;8.7;;
23252;SDS011;11795;47.054;15.408;2023-02-12T06:14:00;11.9;;;8.7;;
23252;SDS011;11795;47.054;15.408;2023-02-12T06:16:00;12.8;;;8.4;;
23252;SDS011;11795;47.054;15.408;2023-02-12T06:18:00;12.8;;;8.4;;
23252;SDS011;11795;47.054;15.408;2023-02-12T06:20:00;12.4;;;8.4;;
23252;SDS011;11795;47.054;15.408;2023-02-12T06:22:00;12.4;;;8.4;;
23252;SDS011;11795;47.054;15.408;2023-02-12T06:24:00;12.4;;;8.4;;
23252;SDS011;11795;47.054;15.408;2023-02-12T06:26:00;11.8;;;8.7;;
23252;SDS011;11795;47.054;15.408;2023-02-12T06:28:00;11.8;;;8.7;;
23252;SDS011;11795;47.054;15.408;2023-02-12T06:30:00;11.2;;;8.3;;
23252;SDS011;11795;47.054;15.408;2023-02-12T06:32:00;11.2;;;8.3;;
23252;SDS011;11795;47.054;15.408;2023-02-12T06:34:00;11.2;;;8.3;;
23252;SDS011;11795;47.054;15.408;2023-02-12T06:36:01;11.9;;;8.6;;
23252;SDS011;11795;47.054;15.408;2023-02-12T06:38:00;11.9;;;8.6;;
23252;SDS011;11795;47.054;15.408;2023-02-12T06:40:00;12.4;;;9.2;;
23252;SDS011;11795;47.054;15.408;2023-02-12T06:42:00;12.4;;;9.2;;
23252;SDS011;11795;47.054;15.408;2023-02-12T06:44:00;12.4;;;9.2;;
23252;SDS011;11795;47.054;15.408;2023-02-12T06:46:00;12.0;;;8.5;;
23252;SDS011;11795;47.054;15.408;2023-02-12T06:48:00;12.0;;;8.5;;
23252;SDS011;11795;47.054;15.408;2023-02-12T06:50:00;14.4;;;9.1;;
23252;SDS011;11795;47.054;15.408;2023-02-12T06:52:00;14.4;;;9.1;;
23252;SDS011;11795;47.054;15.408;2023-02-12T06:54:00;14.4;;;9.1;;
23252;SDS011;11795;47.054;15.408;2023-02-12T06:56:00;12.1;;;8.3;;
23252;SDS011;11795;47.054;15.408;2023-02-12T06:58:00;12.1;;;8.3;;
23252;SDS011;11795;47.054;15.408;2023-02-12T07:00:00;12.3;;;8.9;;
23252;SDS011;11795;47.054;15.408;2023-02-12T07:02:00;12.3;;;8.9;;
23252;SDS011;11795;47.054;15.408;2023-02-12T07:04:01;12.3;;;8.9;;
23252;SDS011;11795;47.054;15.408;2023-02-12T07:06:02;12.1;;;8.9;;
23252;SDS011;11795;47.054;15.408;2023-02-12T07:08:00;12.1;;;8.9;;
23252;SDS011;11795;47.054;15.408;2023-02-12T07:10:00;12.0;;;8.6;;
23252;SDS011;11795;47.054;15.408;2023-02-12T07:12:00;12.0;;;8.6;;
23252;SDS011;11795;47.054;15.408;2023-02-12T07:14:00;12.0;;;8.6;;
23252;SDS011;11795;47.054;15.408;2023-02-12T07:16:04;11.4;;;8.9;;
23252;SDS011;11795;47.054;15.408;2023-02-12T07:18:00;11.4;;;8.9;;
23252;SDS011;11795;47.054;15.408;2023-02-12T07:20:00;11.9;;;8.9;;
23252;SDS011;11795;47.054;15.408;2023-02-12T07:22:00;11.9;;;8.9;;
23252;SDS011;11795;47.054;15.408;2023-02-12T07:24:00;11.9;;;8.9;;
23252;SDS011;11795;47.054;15.408;2023-02-12T07:26:01;13.1;;;10.3;;
23252;SDS011;11795;47.054;15.408;2023-02-12T07:28:00;13.1;;;10.3;;
23252;SDS011;11795;47.054;15.408;2023-02-12T07:30:00;25.0;;;15.9;;
23252;SDS011;11795;47.054;15.408;2023-02-12T07:32:00;25.0;;;15.9;;
23252;SDS011;11795;47.054;15.408;2023-02-12T07:34:00;25.0;;;15.9;;
23252;SDS011;11795;47.054;15.408;2023-02-12T07:36:00;13.3;;;9.0;;
23252;SDS011;11795;47.054;15.408;2023-02-12T07:38:00;13.3;;;9.0;;
23252;SDS011;11795;47.054;15.408;2023-02-12T07:40:01;9.8;;;7.6;;
23252;SDS011;11795;47.054;15.408;2023-02-12T07:42:00;9.8;;;7.6;;
23252;SDS011;11795;47.054;15.408;2023-02-12T07:44:01;9.8;;;7.6;;
23252;SDS011;11795;47.054;15.408;2023-02-12T07:46:04;10.6;;;7.6;;
23252;SDS011;11795;47.054;15.408;2023-02-12T07:48:00;10.6;;;7.6;;
23252;SDS011;11795;47.054;15.408;2023-02-12T07:50:00;10.6;;;7.6;;
23252;SDS011;11795;47.054;15.408;2023-02-12T07:52:00;12.0;;;8.4;;
23252;SDS011;11795;47.054;15.408;2023-02-12T07:54:00;12.0;;;8.4;;
23252;SDS011;11795;47.054;15.408;2023-02-12T07:56:09;11.2;;;8.2;;
23252;SDS011;11795;47.054;15.408;2023-02-12T07:58:00;11.2;;;8.2;;
23252;SDS011;11795;47.054;15.408;2023-02-12T08:00:00;11.2;;;8.2;;
23252;SDS011;11795;47.054;15.408;2023-02-12T08:02:00;10.4;;;8.2;;
23252;SDS011;11795;47.054;15.408;2023-02-12T08:04:00;10.4;;;8.2;;
23252;SDS011;11795;47.054;15.408;2023-02-12T08:06:05;9.7;;;7.3;;
23252;SDS011;11795;47.054;15.408;2023-02-12T08:08:00;9.7;;;7.3;;
23252;SDS011;11795;47.054;15.408;2023-02-12T08:10:00;9.7;;;7.3;;
23252;SDS011;11795;47.054;15.408;2023-02-12T08:12:00;8.7;;;7.1;;
23252;SDS011;11795;47.054;15.408;2023-02-12T08:14:00;8.7;;;7.1;;
23252;SDS011;11795;47.054;15.408;2023-02-12T08:16:00;9.6;;;6.7;;
23252;SDS011;11795;47.054;15.408;2023-02-12T08:18:00;9.6;;;6.7;;
23252;SDS011;11795;47.054;15.408;2023-02-12T08:20:00;9.6;;;6.7;;
23252;SDS011;11795;47.054;15.408;2023-02-12T08:22:02;10.0;;;6.5;;
23252;SDS011;11795;47.054;15.408;2023-02-12T08:24:00;10.0;;;6.5;;
23252;SDS011;11795;47.054;15.408;2023-02-12T08:26:04;9.0;;;6.8;;
23252;SDS011;11795;47.054;15.408;2023-02-12T08:28:00;9.0;;;6.8;;
23252;SDS011;11795;47.054;15.408;2023-02-12T08:30:00;9.0;;;6.8;;
23252;SDS011;11795;47.054;15.408;2023-02-12T08:32:01;10.7;;;6.5;;
23252;SDS011;11795;47.054;15.408;2023-02-12T08:34:00;10.7;;;6.5;;
23252;SDS011;11795;47.054;15.408;2023-02-12T08:36:01;9.5;;;7.1;;
23252;SDS011;11795;47.054;15.408;2023-02-12T08:38:00;9.5;;;7.1;;
23252;SDS011;11795;47.054;15.408;2023-02-12T08:40:00;9.5;;;7.1;;
23252;SDS011;11795;47.054;15.408;2023-02-12T08:42:00;9.9;;;7.3;;
23252;SDS011;11795;47.054;15.408;2023-02-12T08:44:01;9.9;;;7.3;;
23252;SDS011;11795;47.054;15.408;2023-02-12T08:46:01;9.9;;;7.3;;
23252;SDS011;11795;47.054;15.408;2023-02-12T08:48:01;9.9;;;7.3;;
23252;SDS011;11795;47.054;15.408;2023-02-12T08:50:00;9.9;;;7.3;;
23252;SDS011;11795;47.054;15.408;2023-02-12T08:52:01;8.3;;;7.1;;
23252;SDS011;11795;47.054;15.408;2023-02-12T08:54:01;8.3;;;7.1;;
23252;SDS011;11795;47.054;15.408;2023-02-12T08:56:00;10.7;;;7.6;;
23252;SDS011;11795;47.054;15.408;2023-02-12T08:58:01;10.7;;;7.6;;
23252;SDS011;11795;47.054;15.408;2023-02-12T09:00:00;10.7;;;7.6;;
23252;SDS011;11795;47.054;15.408;2023-02-12T09:02:00;10.9;;;8.0;;
23252;SDS011;11795;47.054;15.408;2023-02-12T09:04:00;10.9;;;8.0;;
23252;SDS011;11795;47.054;15.408;2023-02-12T09:06:00;11.3;;;7.4;;
23252;SDS011;11795;47.054;15.408;2023-02-12T09:08:00;11.3;;;7.4;;
23252;SDS011;11795;47.054;15.408;2023-02-12T09:10:00;11.3;;;7.4;;
23252;SDS011;11795;47.054;15.408;2023-02-12T09:12:00;12.6;;;10.0;;
23252;SDS011;11795;47.054;15.408;2023-02-12T09:14:01;12.6;;;10.0;;
23252;SDS011;11795;47.054;15.408;2023-02-12T09:16:01;15.8;;;11.7;;
23252;SDS011;11795;47.054;15.408;2023-02-12T09:18:03;15.8;;;11.7;;
23252;SDS011;11795;47.054;15.408;2023-02-12T09:20:01;15.8;;;11.7;;
23252;SDS011;11795;47.054;15.408;2023-02-12T09:22:00;14.4;;;11.7;;
23252;SDS011;11795;47.054;15.408;2023-02-12T09:24:00;14.4;;;11.7;;
23252;SDS011;11795;47.054;15.408;2023-02-12T09:26:02;13.2;;;10.6;;
23252;SDS011;11795;47.054;15.408;2023-02-12T09:28:00;13.2;;;10.6;;
23252;SDS011;11795;47.054;15.408;2023-02-12T09:30:00;13.2;;;10.6;;
23252;SDS011;11795;47.054;15.408;2023-02-12T09:32:03;13.6;;;11.0;;
23252;SDS011;11795;47.054;15.408;2023-02-12T09:34:01;13.6;;;11.0;;
23252;SDS011;11795;47.054;15.408;2023-02-12T09:36:01;16.8;;;13.3;;
23252;SDS011;11795;47.054;15.408;2023-02-12T09:38:00;16.8;;;13.3;;
23252;SDS011;11795;47.054;15.408;2023-02-12T09:40:00;16.8;;;13.3;;
23252;SDS011;11795;47.054;15.408;2023-02-12T09:42:06;19.7;;;14.6;;
23252;SDS011;11795;47.054;15.408;2023-02-12T09:44:01;19.7;;;14.6;;
23252;SDS011;11795;47.054;15.408;2023-02-12T09:46:01;16.7;;;14.1;;
23252;SDS011;11795;47.054;15.408;2023-02-12T09:48:04;16.7;;;14.1;;
23252;SDS011;11795;47.054;15.408;2023-02-12T09:50:02;16.7;;;14.1;;
23252;SDS011;11795;47.054;15.408;2023-02-12T09:52:00;17.8;;;14.5;;
23252;SDS011;11795;47.054;15.408;2023-02-12T09:54:02;17.8;;;14.5;;
23252;SDS011;11795;47.054;15.408;2023-02-12T09:56:00;18.2;;;15.4;;
23252;SDS011;11795;47.054;15.408;2023-02-12T09:58:01;18.2;;;15.4;;
23252;SDS011;11795;47.054;15.408;2023-02-12T10:00:02;18.2;;;15.4;;
23252;SDS011;11795;47.054;15.408;2023-02-12T10:02:00;19.4;;;14.3;;
23252;SDS011;11795;47.054;15.408;2023-02-12T10:04:00;19.4;;;14.3;;
23252;SDS011;11795;47.054;15.408;2023-02-12T10:06:00;16.3;;;13.7;;
23252;SDS011;11795;47.054;15.408;2023-02-12T10:08:05;16.3;;;13.7;;
23252;SDS011;11795;47.054;15.408;2023-02-12T10:10:03;16.3;;;13.7;;
23252;SDS011;11795;47.054;15.408;2023-02-12T10:12:03;15.1;;;12.4;;
23252;SDS011;11795;47.054;15.408;2023-02-12T10:14:02;15.1;;;12.4;;
23252;SDS011;11795;47.054;15.408;2023-02-12T10:16:01;15.0;;;12.7;;
23252;SDS011;11795;47.054;15.408;2023-02-12T10:18:03;15.0;;;12.7;;
23252;SDS011;11795;47.054;15.408;2023-02-12T10:20:05;15.0;;;12.7;;
23252;SDS011;11795;47.054;15.408;2023-02-12T10:22:02;16.1;;;13.1;;
23252;SDS011;11795;47.054;15.408;2023-02-12T10:24:05;16.1;;;13.1;;
23252;SDS011;11795;47.054;15.408;2023-02-12T10:26:01;13.9;;;12.1;;
23252;SDS011;11795;47.054;15.408;2023-02-12T10:28:04;13.9;;;12.1;;
23252;SDS011;11795;47.054;15.408;2023-02-12T10:30:00;13.9;;;12.1;;
23252;SDS011;11795;47.054;15.408;2023-02-12T10:32:01;15.0;;;11.9;;
23252;SDS011;11795;47.054;15.408;2023-02-12T10:34:00;15.0;;;11.9;;
23252;SDS011;11795;47.054;15.408;2023-02-12T10:36:01;12.2;;;10.9;;
23252;SDS011;11795;47.054;15.408;2023-02-12T10:38:02;12.2;;;10.9;;
23252;SDS011;11795;47.054;15.408;2023-02-12T10:40:00;12.2;;;10.9;;
23252;SDS011;11795;47.054;15.408;2023-02-12T10:42:01;13.1;;;10.0;;
23252;SDS011;11795;47.054;15.408;2023-02-12T10:44:00;13.1;;;10.0;;
23252;SDS011;11795;47.054;15.408;2023-02-12T10:46:00;9.1;;;7.4;;
23252;SDS011;11795;47.054;15.408;2023-02-12T10:48:03;9.1;;;7.4;;
23252;SDS011;11795;47.054;15.408;2023-02-12T10:50:01;9.1;;;7.4;;
23252;SDS011;11795;47.054;15.408;2023-02-12T10:52:03;10.4;;;8.7;;
23252;SDS011;11795;47.054;15.408;2023-02-12T10:56:05;13.1;;;10.8;;
23252;SDS011;11795;47.054;15.408;2023-02-12T10:58:01;13.1;;;10.8;;
23252;SDS011;11795;47.054;15.408;2023-02-12T11:02:00;11.3;;;8.3;;
23252;SDS011;11795;47.054;15.408;2023-02-12T11:06:10;12.7;;;10.3;;
23252;SDS011;11795;47.054;15.408;2023-02-12T11:08:00;12.7;;;10.3;;
23252;SDS011;11795;47.054;15.408;2023-02-12T11:10:00;12.7;;;10.3;;
23252;SDS011;11795;47.054;15.408;2023-02-12T11:12:00;9.8;;;8.8;;
23252;SDS011;11795;47.054;15.408;2023-02-12T11:14:01;9.8;;;8.8;;
23252;SDS011;11795;47.054;15.408;2023-02-12T11:16:01;9.7;;;7.7;;
23252;SDS011;11795;47.054;15.408;2023-02-12T11:18:01;9.7;;;7.7;;
23252;SDS011;11795;47.054;15.408;2023-02-12T11:20:05;9.7;;;7.7;;
23252;SDS011;11795;47.054;15.408;2023-02-12T11:22:04;11.6;;;8.2;;
23252;SDS011;11795;47.054;15.408;2023-02-12T11:26:03;9.5;;;7.6;;
23252;SDS011;11795;47.054;15.408;2023-02-12T11:28:02;9.5;;;7.6;;
23252;SDS011;11795;47.054;15.408;2023-02-12T11:30:11;9.5;;;7.6;;
23252;SDS011;11795;47.054;15.408;2023-02-12T11:32:02;9.2;;;7.1;;
23252;SDS011;11795;47.054;15.408;2023-02-12T11:34:09;9.2;;;7.1;;
23252;SDS011;11795;47.054;15.408;2023-02-12T11:36:02;7.2;;;6.0;;
23252;SDS011;11795;47.054;15.408;2023-02-12T11:38:01;7.2;;;6.0;;
23252;SDS011;11795;47.054;15.408;2023-02-12T11:40:00;7.2;;;6.0;;
23252;SDS011;11795;47.054;15.408;2023-02-12T11:42:01;8.4;;;5.9;;
23252;SDS011;11795;47.054;15.408;2023-02-12T11:44:00;8.4;;;5.9;;
23252;SDS011;11795;47.054;15.408;2023-02-12T11:46:00;6.7;;;5.3;;
23252;SDS011;11795;47.054;15.408;2023-02-12T11:48:00;6.7;;;5.3;;
23252;SDS011;11795;47.054;15.408;2023-02-12T11:50:03;6.7;;;5.3;;
23252;SDS011;11795;47.054;15.408;2023-02-12T11:52:01;5.9;;;5.3;;
23252;SDS011;11795;47.054;15.408;2023-02-12T11:54:01;5.9;;;5.3;;
23252;SDS011;11795;47.054;15.408;2023-02-12T11:56:00;5.7;;;4.9;;
23252;SDS011;11795;47.054;15.408;2023-02-12T11:58:01;5.7;;;4.9;;
23252;SDS011;11795;47.054;15.408;2023-02-12T12:00:00;5.7;;;4.9;;
23252;SDS011;11795;47.054;15.408;2023-02-12T12:02:02;5.1;;;4.3;;
23252;SDS011;11795;47.054;15.408;2023-02-12T12:04:02;5.1;;;4.3;;
23252;SDS011;11795;47.054;15.408;2023-02-12T12:06:01;4.1;;;3.7;;
23252;SDS011;11795;47.054;15.408;2023-02-12T12:08:02;4.1;;;3.7;;
23252;SDS011;11795;47.054;15.408;2023-02-12T12:10:02;4.1;;;3.7;;
23252;SDS011;11795;47.054;15.408;2023-02-12T12:12:02;5.6;;;4.2;;
23252;SDS011;11795;47.054;15.408;2023-02-12T12:14:01;5.6;;;4.2;;